Rechercher aéroport 
image banner adimage banner adimage banner ad
image banner ad

KSBP - San Luis County Rgnl

Situé à San Luis Obispo, United States

ICAO - SBP, IATA - SBP

Données fournies par Airmate  

Information générale

Coordonnées: N35°14'14" W120°38'33"
Élévation : 212 feet MSL.
Variation magnétique : 15° East
Voir autres Aéroports à California

Données opérationnelles

Special qualification required
Heure actuelle UTC:
Heure actuelle locale:
Météo
METAR: KSBP 262256Z 33006KT 10SM FEW045 SCT070 BKN100 20/16 A2996 RMK AO2 RAB12E56 SLP142 P0001 T02000156
TAF: KSBP 261740Z 2618/2718 14003KT P6SM SCT009 BKN120 FM262000 25006KT P6SM VCSH OVC100 FM270200 30006KT P6SM OVC120 FM270800 VRB03KT P6SM OVC007 FM271200 VRB03KT 1SM BR OVC003
Voir NOTAMs / SUP AIP / TFR affectant cet aéroport [VIEW]
Fréquences de communication: [VIEW]

Pistes:

Identifiant RWYQFULongueur (ft)Largeur (ft)SurfaceLDA (ft)
0790°2500100ASPH2500
25270°2500100ASPH2500
11125°6101150ASPH5300
29305°6101150ASPH5600

Coordonnées de l'aéroport

Adresse: San Luis Obispo United States

Autres services d'aviation

Écoles de pilotage

Hangar 46 Aviation

Hangar 46 Aviation
mike@hangar46.com+1(805)215-8914

Aerocademy

Aerocademy
jb@aerocademy.com+1(805)544-2441

Sunwest Aviation, Inc

Sunwest Aviation, Inc
csr@flysunwest.com+1(805)783-2359

California Cubs

California Cubs
ben@californiacubs.com+1(805)441-9573

Helipro

Helipro
info@helitraining.com+1(805)543-2713

Vue satellite de KSBP